Time;durP1;ratioP1;P1;durP2;ratioP2;P2;SDS_P1;SDS_P2;PMS_P1;PMS_P2;Temp;Humidity;BMP_temperature;BMP_pressure;BME280_temperature;BME280_humidity;BME280_pressure;Samples;Min_cycle;Max_cycle;Signal;HPM_P1;HPM_P2
2023/08/18 00:01:42;;;;;;;5.37;4.40;;;;;;;19.46;100.00;98181.22;5032539;28;20215;-85
2023/08/18 00:04:09;;;;;;;7.33;4.53;;;;;;;19.40;100.00;98185.41;5032363;28;20219;-85
2023/08/18 00:06:35;;;;;;;5.10;4.30;;;;;;;19.30;100.00;98181.97;5032463;28;20234;-84
2023/08/18 00:09:04;;;;;;;7.43;4.80;;;;;;;19.18;100.00;98185.88;5032021;28;20229;-84
2023/08/18 00:11:31;;;;;;;6.10;4.40;;;;;;;19.10;100.00;98185.00;5031965;28;20208;-83
2023/08/18 00:13:57;;;;;;;6.50;4.90;;;;;;;19.05;100.00;98174.75;5032347;28;20524;-84
2023/08/18 00:16:24;;;;;;;6.27;4.53;;;;;;;19.07;100.00;98174.59;5032265;28;20236;-85
2023/08/18 00:18:50;;;;;;;7.40;4.23;;;;;;;19.07;100.00;98172.75;5032190;28;20220;-84
2023/08/18 00:21:16;;;;;;;4.57;4.17;;;;;;;19.04;100.00;98167.72;5038206;28;20208;-82
2023/08/18 00:23:44;;;;;;;6.43;4.17;;;;;;;18.99;100.00;98170.03;5050717;28;20270;-83
2023/08/18 00:26:12;;;;;;;5.23;4.43;;;;;;;18.95;100.00;98165.97;5050641;28;20257;-82
2023/08/18 00:28:38;;;;;;;5.70;4.37;;;;;;;18.92;100.00;98163.63;5045088;28;20241;-85
2023/08/18 00:31:05;;;;;;;4.97;4.43;;;;;;;18.89;100.00;98169.28;5032239;28;20208;-85
2023/08/18 00:33:31;;;;;;;5.07;3.97;;;;;;;18.84;100.00;98160.88;5032998;28;20204;-84
2023/08/18 00:35:58;;;;;;;5.17;4.30;;;;;;;18.84;100.00;98160.03;5032526;28;20248;-84
2023/08/18 00:38:24;;;;;;;6.40;4.20;;;;;;;18.79;100.00;98168.56;5032020;28;20216;-84
2023/08/18 00:40:51;;;;;;;5.27;3.93;;;;;;;18.74;100.00;98167.31;5031465;28;20585;-84
2023/08/18 00:43:18;;;;;;;5.70;5.17;;;;;;;18.69;100.00;98170.47;5031933;28;20248;-86
2023/08/18 00:45:45;;;;;;;6.57;4.20;;;;;;;18.66;100.00;98161.91;5031676;28;20242;-84
2023/08/18 00:48:11;;;;;;;4.87;3.93;;;;;;;18.63;100.00;98157.72;5031699;28;20223;-85
2023/08/18 00:50:38;;;;;;;5.03;4.30;;;;;;;18.58;100.00;98160.00;5031377;28;20245;-85
2023/08/18 00:53:05;;;;;;;4.23;3.83;;;;;;;18.54;100.00;98161.28;5031363;28;20209;-85
2023/08/18 00:55:31;;;;;;;5.17;4.27;;;;;;;18.51;100.00;98153.59;5031704;28;20247;-86
2023/08/18 00:58:01;;;;;;;5.57;4.30;;;;;;;18.48;100.00;98159.25;5031401;28;20203;-85
2023/08/18 01:00:29;;;;;;;6.30;4.30;;;;;;;18.43;100.00;98156.22;5031150;28;20209;-85
2023/08/18 01:02:56;;;;;;;7.07;4.10;;;;;;;18.36;100.00;98156.97;5031158;28;20209;-85
2023/08/18 01:05:22;;;;;;;5.57;4.17;;;;;;;18.31;100.00;98149.41;5031118;28;20239;-84
2023/08/18 01:07:49;;;;;;;5.40;4.27;;;;;;;18.26;100.00;98154.34;5031204;28;20212;-84
2023/08/18 01:10:15;;;;;;;8.00;4.73;;;;;;;18.24;100.00;98156.31;5031315;28;20232;-85
2023/08/18 01:12:49;;;;;;;6.80;4.50;;;;;;;18.28;100.00;98147.00;5031410;28;20212;-85
2023/08/18 01:15:19;;;;;;;6.50;4.80;;;;;;;18.29;100.00;98151.34;5031427;28;20245;-85
2023/08/18 01:17:51;;;;;;;5.63;4.50;;;;;;;18.18;100.00;98146.25;5031108;28;20220;-85
2023/08/18 01:20:19;;;;;;;6.10;4.57;;;;;;;18.07;100.00;98138.44;5030856;28;20213;-85
2023/08/18 01:22:49;;;;;;;5.73;4.60;;;;;;;18.04;100.00;98138.72;5031107;28;20294;-84
2023/08/18 01:25:17;;;;;;;6.80;4.60;;;;;;;18.03;100.00;98137.06;5031479;28;20237;-85
2023/08/18 01:27:43;;;;;;;5.93;4.80;;;;;;;18.02;100.00;98140.72;5031136;28;20209;-85
2023/08/18 01:30:11;;;;;;;5.33;4.77;;;;;;;18.04;100.00;98148.59;5030992;28;20240;-86
2023/08/18 01:32:53;;;;;;;5.50;4.80;;;;;;;18.04;100.00;98149.44;5031014;28;20205;-84
2023/08/18 01:35:24;;;;;;;6.93;5.00;;;;;;;18.00;100.00;98141.88;5031294;28;20236;-84
2023/08/18 01:37:51;;;;;;;5.43;4.70;;;;;;;17.98;100.00;98143.88;5031062;28;20211;-84
2023/08/18 01:40:22;;;;;;;5.37;4.87;;;;;;;18.00;100.00;98140.03;5030720;28;20205;-84
2023/08/18 01:42:49;;;;;;;5.50;4.80;;;;;;;17.92;100.00;98142.63;5030876;28;20219;-86
2023/08/18 01:45:16;;;;;;;7.70;4.53;;;;;;;17.91;100.00;98143.63;5030921;28;20577;-84
2023/08/18 01:47:42;;;;;;;4.80;4.40;;;;;;;17.87;100.00;98136.88;5030963;28;20251;-86
2023/08/18 01:50:09;;;;;;;8.27;5.00;;;;;;;17.99;100.00;98146.34;5030555;28;20228;-84
2023/08/18 01:52:36;;;;;;;6.63;4.63;;;;;;;17.98;100.00;98144.69;5030584;28;20680;-84
2023/08/18 01:55:03;;;;;;;5.77;4.70;;;;;;;17.98;100.00;98150.03;5030665;28;20236;-84
2023/08/18 01:57:31;;;;;;;6.50;4.90;;;;;;;18.04;100.00;98153.97;5030919;28;20699;-84
2023/08/18 01:59:57;;;;;;;5.90;4.20;;;;;;;18.00;100.00;98142.72;5030473;28;20232;-86
2023/08/18 02:02:24;;;;;;;4.80;4.13;;;;;;;18.08;100.00;98139.25;5030574;28;20209;-85
2023/08/18 02:04:50;;;;;;;7.67;4.60;;;;;;;18.08;100.00;98140.13;5030604;28;20783;-86
2023/08/18 02:07:17;;;;;;;6.17;4.20;;;;;;;18.09;100.00;98141.78;5030750;28;20580;-84
2023/08/18 02:09:42;;;;;;;5.97;4.13;;;;;;;18.09;100.00;98136.44;5030347;28;20225;-84
2023/08/18 02:12:09;;;;;;;4.60;4.07;;;;;;;18.05;100.00;98136.91;5031057;28;20204;-84
2023/08/18 02:14:37;;;;;;;5.47;3.47;;;;;;;18.01;100.00;98133.69;5035232;28;20215;-84
2023/08/18 02:17:03;;;;;;;6.63;3.97;;;;;;;18.01;100.00;98133.69;5035806;28;20233;-84
2023/08/18 02:19:30;;;;;;;4.03;3.33;;;;;;;18.02;100.00;98130.03;5035203;28;20209;-84
2023/08/18 02:21:56;;;;;;;4.33;3.50;;;;;;;17.99;100.00;98135.66;5035428;28;20569;-84
2023/08/18 02:24:23;;;;;;;4.50;3.77;;;;;;;17.97;100.00;98132.31;5035534;28;20258;-84
2023/08/18 02:26:49;;;;;;;4.57;4.00;;;;;;;17.97;100.00;98132.31;5035614;28;20229;-84
2023/08/18 02:29:16;;;;;;;4.27;3.87;;;;;;;17.98;100.00;98125.13;5035445;28;20236;-86
2023/08/18 02:31:44;;;;;;;5.30;3.90;;;;;;;17.97;100.00;98126.97;5035400;28;20231;-84
2023/08/18 02:34:11;;;;;;;5.43;3.60;;;;;;;17.97;100.00;98124.28;5035303;28;20209;-84
2023/08/18 02:36:37;;;;;;;6.03;3.80;;;;;;;17.98;100.00;98130.50;5059236;22;20240;-81
2023/08/18 02:39:04;;;;;;;5.20;3.50;;;;;;;17.95;100.00;98134.31;5053930;28;20212;-80
2023/08/18 02:41:31;;;;;;;5.23;4.53;;;;;;;17.94;100.00;98123.75;5053207;28;20211;-81
2023/08/18 02:43:57;;;;;;;5.20;3.97;;;;;;;17.93;100.00;98124.75;5053738;28;20212;-80
2023/08/18 02:46:24;;;;;;;4.00;3.60;;;;;;;17.88;100.00;98122.53;5053881;28;20238;-80
2023/08/18 02:48:52;;;;;;;5.47;4.10;;;;;;;17.91;100.00;98111.53;5053930;28;20595;-80
2023/08/18 02:51:18;;;;;;;5.67;4.33;;;;;;;17.91;100.00;98116.06;5053382;28;20702;-80
2023/08/18 02:53:48;;;;;;;8.30;4.80;;;;;;;17.91;100.00;98111.53;5053733;28;20211;-80
2023/08/18 02:56:15;;;;;;;7.50;5.07;;;;;;;17.97;100.00;98124.28;5053474;28;20232;-80
2023/08/18 02:58:42;;;;;;;7.03;4.63;;;;;;;18.00;100.00;98118.66;5053653;28;20213;-80
2023/08/18 03:01:08;;;;;;;5.33;4.23;;;;;;;17.97;100.00;98110.91;5053332;28;20559;-80
2023/08/18 03:03:35;;;;;;;4.97;4.47;;;;;;;17.94;100.00;98111.25;5053664;28;20214;-81
2023/08/18 03:06:04;;;;;;;5.33;4.50;;;;;;;17.91;100.00;98108.03;5053489;28;20238;-80
2023/08/18 03:08:30;;;;;;;7.30;4.83;;;;;;;17.87;100.00;98099.44;5053374;28;20208;-80
2023/08/18 03:10:58;;;;;;;6.43;4.80;;;;;;;17.85;100.00;98106.78;5053024;28;20301;-80
2023/08/18 03:13:24;;;;;;;5.93;4.70;;;;;;;17.87;100.00;98102.13;5053483;28;20243;-80
2023/08/18 03:15:51;;;;;;;7.33;4.93;;;;;;;17.85;100.00;98101.44;5053395;28;20232;-80
2023/08/18 03:18:17;;;;;;;6.50;5.43;;;;;;;17.83;100.00;98100.75;5053322;28;20212;-80
2023/08/18 03:20:47;;;;;;;6.53;5.13;;;;;;;17.84;100.00;98106.94;5053041;28;20588;-80
2023/08/18 03:23:16;;;;;;;6.80;5.23;;;;;;;17.81;100.00;98104.56;5053130;28;20215;-81
2023/08/18 03:25:42;;;;;;;5.60;4.83;;;;;;;17.79;100.00;98109.25;5052388;28;20721;-80
2023/08/18 03:28:09;;;;;;;6.73;5.00;;;;;;;17.81;100.00;98097.38;5053074;28;20212;-81
2023/08/18 03:30:36;;;;;;;6.00;4.83;;;;;;;17.78;100.00;98100.38;5052680;28;20259;-80
2023/08/18 03:33:03;;;;;;;5.70;4.90;;;;;;;17.73;100.00;98107.16;5053102;28;20569;-80
2023/08/18 03:35:31;;;;;;;4.90;4.20;;;;;;;17.69;100.00;98100.44;5052756;28;20212;-80
2023/08/18 03:37:58;;;;;;;7.27;5.10;;;;;;;17.64;100.00;98106.25;5052783;28;20215;-80
2023/08/18 03:40:26;;;;;;;8.20;5.10;;;;;;;17.60;100.00;98106.66;5052520;28;20208;-80
2023/08/18 03:42:53;;;;;;;6.73;5.00;;;;;;;17.57;100.00;98113.19;5052899;28;20223;-80
2023/08/18 03:45:19;;;;;;;6.77;5.40;;;;;;;17.53;100.00;98105.59;5052534;28;20212;-80
2023/08/18 03:47:46;;;;;;;7.00;5.07;;;;;;;17.53;100.00;98106.44;5052783;28;20219;-80
2023/08/18 03:50:13;;;;;;;7.97;4.93;;;;;;;17.52;100.00;98110.09;5052258;28;20764;-80
2023/08/18 03:52:39;;;;;;;7.07;4.87;;;;;;;17.53;100.00;98111.78;5052716;28;20227;-80
2023/08/18 03:55:07;;;;;;;6.87;5.20;;;;;;;17.50;100.00;98105.91;5052661;28;20216;-80
2023/08/18 03:57:35;;;;;;;6.77;4.77;;;;;;;17.49;100.00;98105.03;5052465;28;20251;-80
2023/08/18 04:00:03;;;;;;;5.63;4.93;;;;;;;17.46;100.00;98109.84;5052164;28;20557;-80
2023/08/18 04:02:29;;;;;;;7.20;5.07;;;;;;;17.45;100.00;98102.81;5052490;28;20208;-80
2023/08/18 04:04:56;;;;;;;6.30;5.13;;;;;;;17.46;100.00;98104.50;5052325;28;20204;-80
2023/08/18 04:07:22;;;;;;;5.10;4.13;;;;;;;17.43;100.00;98100.28;5052176;28;20234;-81
2023/08/18 04:09:49;;;;;;;5.83;4.77;;;;;;;17.42;100.00;98103.09;5052019;28;20236;-80
2023/08/18 04:12:15;;;;;;;7.07;5.13;;;;;;;17.38;100.00;98102.56;5052333;28;20208;-80
2023/08/18 04:14:43;;;;;;;7.43;5.23;;;;;;;17.39;100.00;98106.09;5052366;28;20236;-80
2023/08/18 04:17:10;;;;;;;5.67;4.67;;;;;;;17.38;100.00;98105.25;5052039;28;20239;-79
2023/08/18 04:19:36;;;;;;;6.50;5.07;;;;;;;17.37;100.00;98103.56;5051560;28;20215;-80
2023/08/18 04:22:03;;;;;;;7.50;5.00;;;;;;;17.39;100.00;98104.28;5051979;28;20212;-79
2023/08/18 04:24:29;;;;;;;7.43;5.03;;;;;;;17.38;100.00;98105.25;5051953;28;20674;-80
2023/08/18 04:26:59;;;;;;;6.07;4.63;;;;;;;17.38;100.00;98102.56;5052098;28;20234;-80
2023/08/18 04:29:26;;;;;;;5.70;4.90;;;;;;;17.38;100.00;98107.91;5051565;28;20208;-79
2023/08/18 04:31:54;;;;;;;5.03;4.53;;;;;;;17.40;100.00;98105.97;5051993;28;20251;-80
2023/08/18 04:34:20;;;;;;;5.63;4.60;;;;;;;17.40;100.00;98105.97;5051734;28;20666;-79
2023/08/18 04:36:47;;;;;;;5.57;4.50;;;;;;;17.39;100.00;98120.31;5050991;28;20243;-79
2023/08/18 04:39:14;;;;;;;5.90;4.93;;;;;;;17.39;100.00;98130.13;5051305;28;20204;-79
2023/08/18 04:41:40;;;;;;;6.07;4.60;;;;;;;17.36;100.00;98131.25;5051723;28;20316;-79
2023/08/18 04:44:07;;;;;;;5.80;4.53;;;;;;;17.33;100.00;98128.03;5051360;28;20679;-80
2023/08/18 04:46:33;;;;;;;5.47;4.53;;;;;;;17.33;100.00;98131.56;5051538;28;20231;-80
2023/08/18 04:49:01;;;;;;;5.77;4.60;;;;;;;17.35;100.00;98126.91;5051859;28;20666;-80
2023/08/18 04:51:28;;;;;;;5.00;4.43;;;;;;;17.35;100.00;98137.56;5051560;28;20255;-79
2023/08/18 04:53:55;;;;;;;5.10;4.60;;;;;;;17.39;100.00;98122.97;5051810;28;20214;-79
2023/08/18 04:56:21;;;;;;;4.47;3.90;;;;;;;17.40;100.00;98135.34;5051644;28;20239;-80
2023/08/18 04:58:48;;;;;;;5.33;4.57;;;;;;;17.42;100.00;98141.38;5051448;28;20215;-80
2023/08/18 05:01:14;;;;;;;5.13;4.33;;;;;;;17.47;100.00;98139.09;5051061;28;20207;-80
2023/08/18 05:03:41;;;;;;;6.43;4.50;;;;;;;17.53;100.00;98135.84;5051683;28;20325;-79
2023/08/18 05:06:09;;;;;;;5.80;4.43;;;;;;;17.58;100.00;98135.38;5051467;28;20239;-80
2023/08/18 05:08:36;;;;;;;5.27;4.43;;;;;;;17.68;100.00;98136.19;5051521;28;20232;-80
2023/08/18 05:11:05;;;;;;;6.13;4.43;;;;;;;17.78;100.00;98140.47;5051064;28;20234;-80
2023/08/18 05:13:31;;;;;;;6.77;4.43;;;;;;;17.92;100.00;98144.47;5051579;28;20208;-80
2023/08/18 05:15:59;;;;;;;6.43;4.10;;;;;;;18.01;100.00;98139.06;5051088;28;20236;-80
2023/08/18 05:18:25;;;;;;;4.77;4.00;;;;;;;18.06;100.00;98134.09;5051380;28;20345;-80
2023/08/18 05:20:52;;;;;;;4.77;4.10;;;;;;;18.18;100.00;98134.69;5050984;28;20204;-80
2023/08/18 05:23:20;;;;;;;5.20;3.70;;;;;;;18.31;100.00;98141.38;5051315;28;20208;-79
2023/08/18 05:25:48;;;;;;;4.87;3.67;;;;;;;18.39;100.00;98132.56;5051073;28;20224;-79
2023/08/18 05:28:15;;;;;;;5.27;4.23;;;;;;;18.52;100.00;98149.09;5051215;28;20212;-79
2023/08/18 05:30:46;;;;;;;5.63;3.90;;;;;;;18.67;100.00;98142.16;5050875;28;20234;-79
2023/08/18 05:33:12;;;;;;;6.23;3.83;;;;;;;18.75;100.00;98139.53;5051243;28;20270;-80
2023/08/18 05:35:39;;;;;;;4.77;3.77;;;;;;;18.81;100.00;98142.44;5050898;28;20232;-80
2023/08/18 05:38:10;;;;;;;6.00;4.03;;;;;;;18.96;100.00;98138.19;5051197;28;20219;-80
2023/08/18 05:40:41;;;;;;;5.83;3.73;;;;;;;19.01;100.00;98135.88;5050571;28;20624;-80
2023/08/18 05:43:08;;;;;;;3.77;3.37;;;;;;;19.09;100.00;98143.13;5050894;28;20224;-80
2023/08/18 05:45:36;;;;;;;4.47;3.60;;;;;;;19.16;100.00;98139.66;5051558;28;20322;-80
2023/08/18 05:48:03;;;;;;;5.10;3.60;;;;;;;19.22;100.00;98139.06;5052929;28;20254;-80
2023/08/18 05:50:30;;;;;;;5.37;3.73;;;;;;;19.31;100.00;98140.78;5054524;28;20224;-79
2023/08/18 05:52:57;;;;;;;4.07;3.67;;;;;;;19.47;100.00;98132.81;5055084;28;20205;-80
2023/08/18 05:55:24;;;;;;;5.50;3.83;;;;;;;19.60;100.00;98138.56;5054575;28;20218;-80
2023/08/18 05:57:52;;;;;;;4.70;3.70;;;;;;;19.84;100.00;98146.69;5054831;28;20226;-80
2023/08/18 06:00:19;;;;;;;5.83;3.73;;;;;;;20.21;100.00;98144.47;5054696;28;20673;-82
2023/08/18 06:02:46;;;;;;;4.10;3.43;;;;;;;20.80;100.00;98144.13;5054701;28;20667;-82
2023/08/18 06:05:13;;;;;;;3.40;3.10;;;;;;;21.39;100.00;98141.03;5054920;28;20204;-81
2023/08/18 06:07:40;;;;;;;4.83;3.77;;;;;;;21.88;100.00;98139.84;5054617;28;20637;-82
2023/08/18 06:10:07;;;;;;;4.70;3.33;;;;;;;22.33;100.00;98128.28;5054260;28;20218;-82
2023/08/18 06:12:34;;;;;;;4.30;3.27;;;;;;;22.69;100.00;98135.63;5055049;28;20212;-82
2023/08/18 06:15:02;;;;;;;4.20;3.80;;;;;;;23.06;96.41;98130.22;5054894;28;20204;-80
2023/08/18 06:17:29;;;;;;;5.63;3.17;;;;;;;23.28;94.39;98126.63;5054693;28;20239;-81
2023/08/18 06:19:55;;;;;;;3.40;3.10;;;;;;;23.50;91.81;98124.84;5054118;28;20679;-81
2023/08/18 06:22:22;;;;;;;3.00;2.70;;;;;;;23.64;87.45;98119.44;5054645;28;20215;-82
2023/08/18 06:24:48;;;;;;;3.83;3.10;;;;;;;23.73;86.79;98120.19;5054535;28;20208;-81
2023/08/18 06:27:15;;;;;;;5.97;3.80;;;;;;;23.73;86.38;98126.44;5054381;28;20744;-81
2023/08/18 06:29:41;;;;;;;3.83;2.80;;;;;;;23.54;87.75;98136.97;5055288;28;20299;-86
2023/08/18 06:32:09;;;;;;;3.10;2.80;;;;;;;23.21;89.91;98135.63;5057212;28;20310;-84
2023/08/18 06:34:36;;;;;;;3.43;2.70;;;;;;;22.77;92.72;98151.72;5062157;28;20215;-84
2023/08/18 06:37:03;;;;;;;3.60;2.93;;;;;;;22.36;95.74;98154.88;5062983;28;20232;-83
2023/08/18 06:39:29;;;;;;;4.37;3.10;;;;;;;22.19;97.23;98159.50;5061281;28;20291;-83
2023/08/18 06:41:56;;;;;;;4.03;3.40;;;;;;;21.93;98.56;98164.38;5060847;28;20204;-84
2023/08/18 06:44:22;;;;;;;3.87;2.87;;;;;;;21.87;99.98;98170.44;5054709;28;20237;-84
2023/08/18 06:46:49;;;;;;;4.90;3.00;;;;;;;21.81;100.00;98165.78;5053446;28;20232;-84
2023/08/18 06:49:17;;;;;;;2.60;2.40;;;;;;;21.78;100.00;98176.91;5052923;28;20211;-86
2023/08/18 06:51:43;;;;;;;5.00;2.63;;;;;;;21.77;100.00;98169.81;5052826;28;20223;-85
2023/08/18 06:54:10;;;;;;;2.93;2.67;;;;;;;21.91;99.73;98166.41;5053411;28;20218;-86
2023/08/18 06:56:36;;;;;;;3.17;2.70;;;;;;;21.98;99.24;98164.69;5052853;28;20228;-85
2023/08/18 06:59:03;;;;;;;2.90;2.40;;;;;;;22.02;99.45;98174.09;5051534;28;20218;-85
2023/08/18 07:01:30;;;;;;;3.80;2.97;;;;;;;22.07;98.31;98166.31;5052852;28;20592;-84
2023/08/18 07:03:57;;;;;;;3.70;2.70;;;;;;;22.16;98.18;98169.78;5052958;28;20208;-84
2023/08/18 07:06:25;;;;;;;3.03;2.63;;;;;;;22.27;97.31;98166.69;5052814;28;20228;-85
2023/08/18 07:08:51;;;;;;;4.83;2.80;;;;;;;22.32;96.55;98170.53;5052680;28;20218;-85
2023/08/18 07:11:18;;;;;;;3.93;2.57;;;;;;;22.38;95.96;98161.72;5052795;28;20231;-85
2023/08/18 07:13:45;;;;;;;4.07;2.80;;;;;;;22.51;92.90;98155.78;5052756;28;20216;-85
2023/08/18 07:16:12;;;;;;;2.90;2.43;;;;;;;22.63;93.71;98155.22;5053159;28;20285;-85
2023/08/18 07:18:38;;;;;;;4.47;2.97;;;;;;;22.74;92.87;98152.06;5052829;28;20208;-85
2023/08/18 07:21:05;;;;;;;3.70;2.50;;;;;;;22.82;92.45;98157.41;5052442;28;20687;-85
2023/08/18 07:23:32;;;;;;;2.93;2.63;;;;;;;22.89;89.86;98141.31;5052787;28;20207;-85
2023/08/18 07:25:59;;;;;;;3.30;2.57;;;;;;;22.96;89.96;98151.19;5052599;28;20235;-86
2023/08/18 07:28:26;;;;;;;3.13;2.70;;;;;;;23.04;89.84;98153.81;5052377;28;20231;-85
2023/08/18 07:30:52;;;;;;;4.53;2.50;;;;;;;23.13;90.23;98147.34;5052505;28;20286;-87
2023/08/18 07:33:19;;;;;;;3.07;2.60;;;;;;;23.19;88.77;98148.47;5052359;28;20871;-88
2023/08/18 07:35:46;;;;;;;5.00;2.63;;;;;;;23.25;87.42;98139.66;5053005;28;20224;-85
2023/08/18 07:38:13;;;;;;;4.67;2.47;;;;;;;23.30;87.27;98154.28;5053384;28;20360;-86
2023/08/18 07:40:42;;;;;;;2.90;2.60;;;;;;;23.42;84.53;98144.66;5052969;28;20636;-85
2023/08/18 07:43:08;;;;;;;3.70;2.70;;;;;;;23.48;84.68;98143.91;5051052;28;20219;-84
2023/08/18 07:45:35;;;;;;;2.63;2.23;;;;;;;23.56;84.95;98157.34;5052628;28;20231;-84
2023/08/18 07:48:01;;;;;;;3.10;2.40;;;;;;;23.65;83.55;98145.41;5052261;28;20212;-84
2023/08/18 07:50:28;;;;;;;2.90;2.50;;;;;;;23.80;82.90;98148.94;5052179;28;20636;-84
2023/08/18 07:52:55;;;;;;;2.80;2.53;;;;;;;23.93;83.39;98153.69;5051539;28;20729;-84
2023/08/18 07:55:23;;;;;;;3.17;2.53;;;;;;;23.97;83.30;98150.44;5052022;28;20204;-84
2023/08/18 07:57:50;;;;;;;3.67;2.30;;;;;;;24.12;80.67;98140.44;5052285;28;20208;-83
2023/08/18 08:00:18;;;;;;;2.67;2.30;;;;;;;24.12;79.02;98143.13;5051589;28;20222;-84
2023/08/18 08:02:44;;;;;;;2.70;2.43;;;;;;;24.15;79.40;98150.03;5051830;28;20261;-85
2023/08/18 08:05:12;;;;;;;2.97;2.77;;;;;;;24.19;80.32;98149.44;5051842;28;20216;-84
2023/08/18 08:07:39;;;;;;;2.90;2.70;;;;;;;24.27;80.80;98151.19;5051672;28;20726;-84
2023/08/18 08:10:06;;;;;;;2.43;2.23;;;;;;;24.32;78.43;98138.78;5051616;28;20227;-84
2023/08/18 08:12:34;;;;;;;2.90;2.20;;;;;;;24.35;77.74;98135.72;5051353;28;20228;-84
2023/08/18 08:15:03;;;;;;;2.47;2.27;;;;;;;24.48;77.22;98133.13;5051550;28;20251;-84
2023/08/18 08:17:30;;;;;;;3.10;2.50;;;;;;;24.54;76.38;98135.06;5051786;28;20718;-82
2023/08/18 08:19:57;;;;;;;3.77;2.60;;;;;;;24.52;76.64;98134.44;5052187;28;20235;-86
2023/08/18 08:22:24;;;;;;;3.10;2.57;;;;;;;24.66;77.10;98141.66;5052376;28;20208;-81
2023/08/18 08:24:54;;;;;;;3.50;2.40;;;;;;;24.76;76.76;98142.16;5052123;28;20277;-82
2023/08/18 08:27:21;;;;;;;3.13;2.40;;;;;;;24.82;76.46;98137.84;5052375;28;20239;-78
2023/08/18 08:29:48;;;;;;;2.80;2.37;;;;;;;24.86;75.66;98137.25;5051749;28;20215;-79
2023/08/18 08:32:16;;;;;;;2.83;2.40;;;;;;;25.03;74.70;98138.66;5052067;28;20719;-79
2023/08/18 08:34:48;;;;;;;2.80;2.50;;;;;;;25.07;73.11;98123.72;5052070;28;20215;-79
2023/08/18 08:37:15;;;;;;;2.97;2.70;;;;;;;25.15;71.95;98118.16;5051922;28;20243;-79
2023/08/18 08:39:41;;;;;;;2.43;2.20;;;;;;;25.22;71.78;98110.91;5051596;28;20212;-79
2023/08/18 08:42:09;;;;;;;3.17;2.23;;;;;;;25.29;68.27;98100.19;5051703;28;20200;-79
2023/08/18 08:44:35;;;;;;;2.57;2.10;;;;;;;25.34;66.94;98092.28;5052065;28;20562;-80
2023/08/18 08:47:02;;;;;;;3.10;2.00;;;;;;;25.42;65.65;98079.41;5051895;28;20234;-79
2023/08/18 08:49:31;;;;;;;3.13;1.93;;;;;;;25.59;64.39;98086.19;5051553;28;20235;-76
2023/08/18 08:52:02;;;;;;;2.67;2.20;;;;;;;25.71;65.08;98084.56;5051516;28;20228;-86
2023/08/18 08:54:31;;;;;;;3.03;1.97;;;;;;;25.80;63.38;98087.94;5051926;28;20220;-85
2023/08/18 08:57:00;;;;;;;3.30;1.93;;;;;;;25.92;63.75;98097.19;5052653;28;20248;-84
2023/08/18 08:59:27;;;;;;;2.10;1.90;;;;;;;25.97;64.16;98100.94;5052233;28;20210;-82
2023/08/18 09:01:54;;;;;;;2.03;1.83;;;;;;;26.08;63.53;98092.22;5052190;28;20603;-87
2023/08/18 09:04:21;;;;;;;2.65;2.00;;;;;;;26.30;63.55;98095.63;5050960;28;20445;-81
2023/08/18 09:06:49;;;;;;;2.10;1.90;;;;;;;26.38;63.47;98088.13;5051656;28;20232;-81
2023/08/18 09:09:18;;;;;;;2.60;2.03;;;;;;;26.47;62.14;98078.78;5049958;28;20584;-81
2023/08/18 09:11:46;;;;;;;3.60;2.10;;;;;;;26.68;61.80;98084.03;5050696;28;20365;-81
2023/08/18 09:14:13;;;;;;;4.43;2.00;;;;;;;26.79;60.99;98080.69;5051874;28;20214;-79
2023/08/18 09:16:39;;;;;;;2.63;1.93;;;;;;;26.92;59.34;98076.06;5051722;28;20224;-80
2023/08/18 09:19:06;;;;;;;2.10;1.90;;;;;;;26.84;57.35;98053.78;5051357;28;20687;-81
2023/08/18 09:21:33;;;;;;;2.13;1.90;;;;;;;26.88;57.19;98056.91;5051388;28;20211;-80
2023/08/18 09:24:01;;;;;;;2.27;1.80;;;;;;;27.07;60.19;98078.56;5051090;28;20204;-82
2023/08/18 09:26:28;;;;;;;2.60;2.20;;;;;;;27.10;59.62;98083.59;5051515;28;20231;-83
2023/08/18 09:28:54;;;;;;;2.77;2.10;;;;;;;27.16;56.69;98061.06;5051252;28;20212;-84
2023/08/18 09:31:21;;;;;;;2.30;1.93;;;;;;;27.24;55.74;98058.13;5050783;28;20675;-83
2023/08/18 09:33:47;;;;;;;2.40;2.20;;;;;;;27.23;56.30;98063.75;5051290;28;20212;-83
2023/08/18 09:36:14;;;;;;;2.20;2.00;;;;;;;27.27;56.72;98057.72;5050677;28;20240;-81
2023/08/18 09:38:41;;;;;;;2.63;2.10;;;;;;;27.34;57.40;98069.38;5051224;28;20584;-82
2023/08/18 09:41:10;;;;;;;3.53;2.30;;;;;;;27.49;56.04;98057.22;5050779;28;20242;-85
2023/08/18 09:43:36;;;;;;;2.30;2.10;;;;;;;27.55;58.11;98078.09;5050981;28;20558;-84
2023/08/18 09:46:05;;;;;;;3.33;2.40;;;;;;;27.66;57.75;98069.28;5050809;28;20235;-81
2023/08/18 09:48:35;;;;;;;2.57;2.20;;;;;;;27.82;58.42;98078.84;5050815;28;20244;-81
2023/08/18 09:51:02;;;;;;;3.27;2.30;;;;;;;27.90;58.14;98070.44;5050610;28;20208;-81
2023/08/18 09:53:31;;;;;;;3.88;2.10;;;;;;;27.95;58.46;98070.66;5050622;28;20236;-83
2023/08/18 09:56:03;;;;;;;3.20;2.85;;;;;;;27.98;59.18;98071.03;5050523;28;20232;-83
2023/08/18 09:58:35;;;;;;;2.73;2.17;;;;;;;28.05;58.85;98071.84;5050839;28;20214;-83
2023/08/18 10:01:04;;;;;;;2.55;2.05;;;;;;;28.10;58.43;98065.75;5050438;28;20212;-78
2023/08/18 10:03:32;;;;;;;3.30;2.20;;;;;;;28.16;56.16;98054.00;5051261;28;20565;-81
2023/08/18 10:06:00;;;;;;;3.27;2.10;;;;;;;28.09;55.70;98051.34;5050611;28;20319;-80
2023/08/18 10:08:27;;;;;;;2.87;2.23;;;;;;;28.16;54.12;98043.97;5050935;28;20212;-82
2023/08/18 10:10:54;;;;;;;2.33;1.87;;;;;;;28.27;54.34;98042.44;5050877;28;20681;-80
2023/08/18 10:13:21;;;;;;;3.60;2.40;;;;;;;28.28;57.95;98074.00;5050969;28;20239;-79
2023/08/18 10:15:49;;;;;;;3.77;2.13;;;;;;;28.42;56.69;98053.88;5050591;28;20232;-84
2023/08/18 10:18:17;;;;;;;3.03;2.20;;;;;;;28.37;56.55;98057.25;5051142;28;20215;-85
2023/08/18 10:20:49;;;;;;;3.15;2.05;;;;;;;28.48;57.85;98074.72;5050389;28;20302;-84
2023/08/18 10:23:17;;;;;;;2.55;2.35;;;;;;;28.57;55.33;98057.09;5050788;28;20204;-82
2023/08/18 10:25:44;;;;;;;2.58;1.90;;;;;;;28.67;55.17;98054.72;5050403;28;20807;-90
2023/08/18 10:28:17;;;;;;;2.43;2.10;;;;;;;28.63;56.09;98056.22;5048907;28;20216;-90
2023/08/18 10:30:52;;;;;;;2.60;2.20;;;;;;;28.66;55.06;98043.00;5050294;28;20212;-89
2023/08/18 10:33:29;;;;;;;2.47;2.00;;;;;;;28.79;52.78;98028.47;5050299;28;20235;-89
2023/08/18 10:35:57;;;;;;;2.97;2.00;;;;;;;28.87;53.07;98025.47;5053190;28;20243;-88
2023/08/18 10:38:28;;;;;;;2.97;2.67;;;;;;;28.85;53.20;98022.13;5051464;28;20208;-88
2023/08/18 10:40:55;;;;;;;2.65;1.98;;;;;;;29.00;55.59;98047.13;5050915;28;20645;-87
2023/08/18 10:43:21;;;;;;;2.33;1.90;;;;;;;29.14;56.76;98052.22;5051142;28;20576;-87
2023/08/18 10:45:52;;;;;;;2.83;1.92;;;;;;;29.09;55.05;98035.72;5051859;28;20255;-87
2023/08/18 10:48:18;;;;;;;2.67;2.05;;;;;;;29.13;52.56;98022.50;5053544;28;20208;-87
2023/08/18 10:50:46;;;;;;;2.47;2.03;;;;;;;29.05;51.55;98006.47;5052776;28;20317;-87
2023/08/18 10:53:13;;;;;;;2.20;1.80;;;;;;;29.09;52.05;98010.41;5050411;28;20240;-87
2023/08/18 10:55:40;;;;;;;3.90;2.13;;;;;;;29.27;55.60;98043.06;5050305;28;20242;-87
2023/08/18 10:58:06;;;;;;;2.75;2.10;;;;;;;29.35;53.87;98021.00;5050336;28;20596;-87
2023/08/18 11:00:34;;;;;;;3.80;2.03;;;;;;;29.41;53.67;98017.38;5052630;28;20214;-87
2023/08/18 11:03:03;;;;;;;3.20;2.22;;;;;;;29.40;51.68;97999.38;5053239;28;20219;-87
2023/08/18 11:05:31;;;;;;;1.98;1.80;;;;;;;29.49;52.59;98014.34;5050370;28;20427;-86
2023/08/18 11:07:58;;;;;;;2.60;1.90;;;;;;;29.55;52.93;98013.47;5052439;28;20212;-84
2023/08/18 11:10:25;;;;;;;2.22;2.00;;;;;;;29.61;51.55;97996.22;5058500;28;20631;-86
2023/08/18 11:12:53;;;;;;;2.55;2.03;;;;;;;29.79;54.73;98028.88;5069405;28;20230;-85
2023/08/18 11:15:20;;;;;;;3.72;2.13;;;;;;;29.80;52.13;97997.84;5074180;28;20232;-83
2023/08/18 11:17:47;;;;;;;3.83;2.05;;;;;;;29.88;53.12;98002.94;5067985;28;20208;-81
2023/08/18 11:20:16;;;;;;;1.80;1.70;;;;;;;30.01;51.83;97994.63;5071453;28;20208;-85
2023/08/18 11:22:45;;;;;;;2.05;1.85;;;;;;;30.04;51.58;97986.81;5069331;28;20689;-86
2023/08/18 11:25:12;;;;;;;2.05;1.50;;;;;;;30.04;51.02;97984.09;5061263;28;20216;-85
2023/08/18 11:27:41;;;;;;;2.20;1.70;;;;;;;30.12;49.44;97966.56;5057306;28;20227;-85
2023/08/18 11:30:10;;;;;;;1.98;1.70;;;;;;;30.13;48.65;97947.25;5061995;28;20215;-85